Time;durP1;ratioP1;P1;durP2;ratioP2;P2;SDS_P1;SDS_P2;PMS_P1;PMS_P2;Temp;Humidity;BMP_temperature;BMP_pressure;BME280_temperature;BME280_humidity;BME280_pressure;Samples;Min_cycle;Max_cycle;Signal;HPM_P1;HPM_P2
2023/01/09 00:00:08;;;;;;;0.50;0.37;;;10.10;99.90;;;;;;5025464;28;20514;-47
2023/01/09 00:02:39;;;;;;;0.90;0.50;;;10.10;99.90;;;;;;5046739;28;20428;-47
2023/01/09 00:05:10;;;;;;;1.23;0.60;;;10.10;99.90;;;;;;5042027;28;20472;-46
2023/01/09 00:07:39;;;;;;;0.60;0.60;;;10.10;99.90;;;;;;5040523;28;20532;-48
2023/01/09 00:10:10;;;;;;;0.70;0.70;;;10.10;99.90;;;;;;5048344;28;20487;-46
2023/01/09 00:12:39;;;;;;;0.60;0.43;;;10.10;99.90;;;;;;5064870;28;20926;-47
2023/01/09 00:15:09;;;;;;;0.80;0.60;;;10.10;99.90;;;;;;5030293;28;20479;-46
2023/01/09 00:17:37;;;;;;;1.37;0.80;;;10.10;99.90;;;;;;5052280;28;20965;-47
2023/01/09 00:20:09;;;;;;;0.80;0.63;;;10.10;99.90;;;;;;5049822;28;20481;-46
2023/01/09 00:22:38;;;;;;;0.77;0.50;;;10.10;99.90;;;;;;5045338;28;20437;-46
2023/01/09 00:25:07;;;;;;;0.63;0.50;;;10.10;99.90;;;;;;5062509;28;20524;-46
2023/01/09 00:27:37;;;;;;;1.93;0.50;;;10.10;99.90;;;;;;5048735;28;20424;-47
2023/01/09 00:30:07;;;;;;;0.70;0.50;;;10.10;99.90;;;;;;5028345;28;20546;-46
2023/01/09 00:32:35;;;;;;;1.63;0.50;;;10.10;99.90;;;;;;5044479;28;20951;-46
2023/01/09 00:35:04;;;;;;;0.83;0.60;;;10.10;99.90;;;;;;5032668;28;20877;-46
2023/01/09 00:37:33;;;;;;;0.90;0.60;;;10.10;99.90;;;;;;5057219;28;20816;-45
2023/01/09 00:40:01;;;;;;;0.90;0.50;;;10.10;99.90;;;;;;5047112;28;20467;-47
2023/01/09 00:42:35;;;;;;;0.70;0.53;;;10.10;99.90;;;;;;5031883;28;20443;-47
2023/01/09 00:45:11;;;;;;;0.60;0.50;;;10.10;99.90;;;;;;5027998;28;20858;-46
2023/01/09 00:47:44;;;;;;;1.40;0.90;;;10.10;99.90;;;;;;5041223;28;20976;-46
2023/01/09 00:50:15;;;;;;;0.90;0.43;;;10.10;99.90;;;;;;5049892;28;20498;-47
2023/01/09 00:52:45;;;;;;;0.90;0.60;;;10.10;99.90;;;;;;5043285;28;20431;-47
2023/01/09 00:55:15;;;;;;;1.23;0.40;;;10.10;99.90;;;;;;5056814;28;20458;-46
2023/01/09 00:57:43;;;;;;;1.27;0.53;;;10.10;99.90;;;;;;5033105;28;20589;-47
2023/01/09 01:00:14;;;;;;;0.93;0.50;;;10.10;99.90;;;;;;5045568;28;20470;-45
2023/01/09 01:02:43;;;;;;;0.80;0.60;;;10.10;99.90;;;;;;5040439;28;20450;-47
2023/01/09 01:07:57;;;;;;;1.10;1.00;;;10.10;99.90;;;;;;5038629;28;20506;-46
2023/01/09 01:10:27;;;;;;;0.80;0.40;;;10.10;99.90;;;;;;5042161;28;20539;-46
2023/01/09 01:12:55;;;;;;;0.70;0.50;;;10.10;99.90;;;;;;5043772;28;20853;-47
2023/01/09 01:15:28;;;;;;;0.60;0.50;;;10.10;99.90;;;;;;5058281;28;20596;-48
2023/01/09 01:17:56;;;;;;;0.60;0.50;;;10.10;99.90;;;;;;5038689;28;20512;-47
2023/01/09 01:20:26;;;;;;;0.77;0.40;;;10.10;99.90;;;;;;5044012;28;20527;-47
2023/01/09 01:22:55;;;;;;;1.07;0.53;;;10.10;99.90;;;;;;5038459;28;20900;-45
2023/01/09 01:25:24;;;;;;;0.60;0.40;;;10.10;99.90;;;;;;5043828;28;21063;-46
2023/01/09 01:27:52;;;;;;;1.00;0.60;;;10.10;99.90;;;;;;5039109;28;20454;-45
2023/01/09 01:30:21;;;;;;;0.60;0.40;;;10.00;99.90;;;;;;5043640;28;20533;-46
2023/01/09 01:32:51;;;;;;;0.90;0.80;;;10.10;99.90;;;;;;5034464;28;20444;-48
2023/01/09 01:35:19;;;;;;;0.70;0.40;;;10.00;99.90;;;;;;5044584;28;20484;-46
2023/01/09 01:37:48;;;;;;;0.60;0.40;;;10.10;99.90;;;;;;5036406;28;20440;-48
2023/01/09 01:40:17;;;;;;;1.60;0.70;;;10.10;99.90;;;;;;5061534;28;20475;-46
2023/01/09 01:42:46;;;;;;;1.13;0.30;;;10.00;99.90;;;;;;5030491;28;20707;-46
2023/01/09 01:45:18;;;;;;;1.27;0.60;;;10.00;99.90;;;;;;5028398;28;20471;-45
2023/01/09 01:47:54;;;;;;;0.80;0.47;;;10.00;99.90;;;;;;5039859;28;20482;-47
2023/01/09 01:50:28;;;;;;;1.10;0.47;;;10.00;99.90;;;;;;5046813;28;20826;-47
2023/01/09 01:53:09;;;;;;;0.90;0.40;;;10.00;99.90;;;;;;5046871;28;20508;-45
2023/01/09 01:55:40;;;;;;;0.57;0.40;;;10.00;99.90;;;;;;5044033;28;20491;-47
2023/01/09 01:58:12;;;;;;;0.73;0.50;;;10.00;99.90;;;;;;5047012;28;20451;-45
2023/01/09 02:00:45;;;;;;;0.70;0.30;;;10.00;99.90;;;;;;5060316;28;20485;-46
2023/01/09 02:03:18;;;;;;;0.60;0.40;;;10.00;99.90;;;;;;5042160;28;20446;-45
2023/01/09 02:05:46;;;;;;;0.53;0.47;;;10.00;99.90;;;;;;5032845;28;20530;-46
2023/01/09 02:08:15;;;;;;;0.90;0.30;;;10.00;99.90;;;;;;5033841;28;20437;-46
2023/01/09 02:10:47;;;;;;;1.17;0.43;;;10.00;99.90;;;;;;5029745;28;21013;-46
2023/01/09 02:13:16;;;;;;;0.67;0.50;;;10.00;99.90;;;;;;5030305;28;20542;-45
2023/01/09 02:16:01;;;;;;;0.77;0.40;;;10.00;99.90;;;;;;5031582;28;20910;-47
2023/01/09 02:18:45;;;;;;;0.70;0.50;;;10.00;99.90;;;;;;5049924;28;20459;-47
2023/01/09 02:21:26;;;;;;;0.80;0.50;;;10.00;99.90;;;;;;5050264;28;20474;-45
2023/01/09 02:24:33;;;;;;;0.50;0.40;;;10.00;99.90;;;;;;5033728;28;21032;-45
2023/01/09 02:27:31;;;;;;;0.50;0.30;;;10.00;99.90;;;;;;5021623;28;20443;-47
2023/01/09 02:30:25;;;;;;;0.50;0.43;;;10.00;99.90;;;;;;5044190;28;20479;-46
2023/01/09 02:33:07;;;;;;;1.70;0.40;;;10.00;99.90;;;;;;5045230;28;20430;-45
2023/01/09 02:35:53;;;;;;;1.00;0.60;;;10.00;99.90;;;;;;5044797;28;20481;-45
2023/01/09 02:38:29;;;;;;;0.50;0.40;;;10.00;99.90;;;;;;5052986;28;20977;-47
2023/01/09 02:41:02;;;;;;;0.70;0.40;;;10.00;99.90;;;;;;5024369;28;20468;-45
2023/01/09 02:43:32;;;;;;;0.70;0.50;;;10.00;99.90;;;;;;5048022;28;20837;-47
2023/01/09 02:46:02;;;;;;;1.27;0.73;;;10.00;99.90;;;;;;5034049;28;20484;-46
2023/01/09 02:48:31;;;;;;;0.97;0.50;;;10.00;99.90;;;;;;5046855;28;21009;-47
2023/01/09 02:51:09;;;;;;;0.70;0.50;;;10.00;99.90;;;;;;5034560;28;20499;-47
2023/01/09 02:53:56;;;;;;;0.90;0.50;;;10.00;99.90;;;;;;5030792;28;20455;-44
2023/01/09 02:56:38;;;;;;;0.80;0.53;;;10.00;99.90;;;;;;5028250;28;20746;-46
2023/01/09 02:59:19;;;;;;;0.50;0.30;;;10.00;99.90;;;;;;5046585;28;20469;-46
2023/01/09 03:02:00;;;;;;;0.70;0.43;;;10.00;99.90;;;;;;5038039;28;20913;-46
2023/01/09 03:04:38;;;;;;;0.67;0.50;;;9.90;99.90;;;;;;5027118;28;20474;-45
2023/01/09 03:07:14;;;;;;;0.60;0.43;;;10.00;99.90;;;;;;5038434;28;20472;-45
2023/01/09 03:09:45;;;;;;;0.70;0.40;;;10.00;99.90;;;;;;5042206;28;20704;-48
2023/01/09 03:12:17;;;;;;;0.70;0.50;;;10.00;99.90;;;;;;5047451;28;20655;-45
2023/01/09 03:14:48;;;;;;;0.50;0.40;;;9.90;99.90;;;;;;5040436;28;20836;-48
2023/01/09 03:17:25;;;;;;;0.90;0.57;;;9.90;99.90;;;;;;5044565;28;20443;-45
2023/01/09 03:19:56;;;;;;;1.23;0.50;;;9.90;99.90;;;;;;5037756;28;20549;-45
2023/01/09 03:22:25;;;;;;;1.00;0.50;;;9.90;99.90;;;;;;5028814;28;20471;-47
2023/01/09 03:24:53;;;;;;;0.70;0.40;;;9.90;99.90;;;;;;5045401;28;20452;-47
2023/01/09 03:27:22;;;;;;;0.57;0.40;;;9.90;99.90;;;;;;5029227;28;20447;-49
2023/01/09 03:29:52;;;;;;;1.00;0.50;;;9.90;99.90;;;;;;5029149;28;20998;-45
2023/01/09 03:32:22;;;;;;;0.50;0.40;;;9.90;99.90;;;;;;5046640;28;20464;-45
2023/01/09 03:34:50;;;;;;;0.97;0.50;;;9.90;99.90;;;;;;5046009;28;20472;-46
2023/01/09 03:37:19;;;;;;;0.90;0.50;;;9.90;99.90;;;;;;5046214;28;20795;-47
2023/01/09 03:39:47;;;;;;;0.80;0.50;;;9.90;99.90;;;;;;5026397;28;21014;-48
2023/01/09 03:42:16;;;;;;;1.67;0.40;;;9.90;99.90;;;;;;5033884;28;20462;-46
2023/01/09 03:44:44;;;;;;;1.10;0.40;;;9.90;99.90;;;;;;5049194;28;20495;-48
2023/01/09 03:47:13;;;;;;;0.70;0.50;;;9.90;99.90;;;;;;5048231;28;20459;-47
2023/01/09 03:49:43;;;;;;;1.03;0.70;;;9.90;99.90;;;;;;5041743;28;20654;-49
2023/01/09 03:52:12;;;;;;;0.70;0.40;;;9.90;99.90;;;;;;5050685;28;20447;-46
2023/01/09 03:54:41;;;;;;;0.60;0.40;;;9.90;99.90;;;;;;5040005;28;20436;-45
2023/01/09 03:57:09;;;;;;;0.60;0.50;;;9.90;99.90;;;;;;5049454;28;21203;-46
2023/01/09 03:59:38;;;;;;;2.30;0.90;;;9.90;99.90;;;;;;5044252;28;20472;-47
2023/01/09 04:02:07;;;;;;;1.10;0.47;;;9.80;99.90;;;;;;5063539;28;20459;-46
2023/01/09 04:04:36;;;;;;;1.27;0.50;;;9.80;99.90;;;;;;5060964;28;20483;-46
2023/01/09 04:07:06;;;;;;;0.90;0.67;;;9.80;99.90;;;;;;5035113;28;20494;-46
2023/01/09 04:09:34;;;;;;;0.60;0.50;;;9.80;99.90;;;;;;5034864;28;20482;-47
2023/01/09 04:12:03;;;;;;;0.80;0.60;;;9.80;99.90;;;;;;5035385;28;20462;-45
2023/01/09 04:14:31;;;;;;;0.60;0.53;;;9.80;99.90;;;;;;5065444;28;20459;-46
2023/01/09 04:17:00;;;;;;;0.80;0.50;;;9.80;99.90;;;;;;5032385;28;20516;-46
2023/01/09 04:19:29;;;;;;;2.10;0.57;;;9.80;99.90;;;;;;5065320;28;20486;-46
2023/01/09 04:21:57;;;;;;;0.80;0.50;;;9.80;99.90;;;;;;5032220;28;20470;-46
2023/01/09 04:24:27;;;;;;;2.43;0.63;;;9.80;99.90;;;;;;5049400;28;20443;-48
2023/01/09 04:26:56;;;;;;;0.60;0.40;;;9.80;99.90;;;;;;5047723;28;20450;-46
2023/01/09 04:29:24;;;;;;;2.83;0.60;;;9.80;99.90;;;;;;5061934;28;20975;-46
2023/01/09 04:31:53;;;;;;;1.33;0.50;;;9.80;99.90;;;;;;5030606;28;20460;-47
2023/01/09 04:34:24;;;;;;;1.27;0.67;;;9.80;99.90;;;;;;5046754;28;20633;-45
2023/01/09 04:36:53;;;;;;;1.47;0.40;;;9.80;99.90;;;;;;5049759;28;20440;-47
2023/01/09 04:39:22;;;;;;;2.20;0.50;;;9.80;99.90;;;;;;5049167;28;22457;-45
2023/01/09 04:41:52;;;;;;;1.83;0.60;;;9.80;99.90;;;;;;5066728;28;20913;-47
2023/01/09 04:44:25;;;;;;;1.70;0.57;;;9.80;99.90;;;;;;5033710;28;20462;-46
2023/01/09 04:46:54;;;;;;;0.63;0.40;;;9.80;99.90;;;;;;5032846;28;20453;-46
2023/01/09 04:49:23;;;;;;;1.07;0.40;;;9.80;99.90;;;;;;5029313;28;20465;-45
2023/01/09 04:51:51;;;;;;;1.10;0.40;;;9.80;99.90;;;;;;5032417;28;20429;-46
2023/01/09 04:54:20;;;;;;;0.90;0.50;;;9.80;99.90;;;;;;5029991;28;20496;-46
2023/01/09 04:56:48;;;;;;;1.00;0.50;;;9.80;99.90;;;;;;5040481;28;20467;-47
2023/01/09 04:59:18;;;;;;;1.53;0.50;;;9.80;99.90;;;;;;5033269;28;20995;-47
2023/01/09 05:01:47;;;;;;;0.50;0.40;;;9.80;99.90;;;;;;5049830;28;20861;-47
2023/01/09 05:04:16;;;;;;;1.80;0.60;;;9.80;99.90;;;;;;5033199;28;20512;-47
2023/01/09 05:06:44;;;;;;;0.70;0.40;;;9.80;99.90;;;;;;5040257;28;20452;-47
2023/01/09 05:09:13;;;;;;;0.80;0.70;;;9.80;99.90;;;;;;5049562;28;20470;-45
2023/01/09 05:11:41;;;;;;;2.90;0.60;;;9.80;99.90;;;;;;5035767;28;20460;-47
2023/01/09 05:14:11;;;;;;;0.80;0.40;;;9.80;99.90;;;;;;5049592;28;20452;-45
2023/01/09 05:16:41;;;;;;;0.80;0.40;;;9.80;99.90;;;;;;5046222;28;20976;-47
2023/01/09 05:19:10;;;;;;;2.43;0.97;;;9.80;99.90;;;;;;5050070;28;20483;-47
2023/01/09 05:21:39;;;;;;;0.80;0.70;;;9.80;99.90;;;;;;5063898;28;21131;-46
2023/01/09 05:24:08;;;;;;;0.90;0.53;;;9.80;99.90;;;;;;5064883;28;20562;-46
2023/01/09 05:26:36;;;;;;;1.10;0.57;;;9.80;99.90;;;;;;5043576;28;20436;-46
2023/01/09 05:29:05;;;;;;;0.93;0.53;;;9.80;99.90;;;;;;5028390;28;20468;-45
2023/01/09 05:31:33;;;;;;;1.97;0.57;;;9.70;99.90;;;;;;5034106;28;20447;-47
2023/01/09 05:34:03;;;;;;;1.80;0.50;;;9.70;99.90;;;;;;5048618;28;20496;-47
2023/01/09 05:36:32;;;;;;;1.43;0.40;;;9.70;99.90;;;;;;5033411;28;20452;-47
2023/01/09 05:39:01;;;;;;;0.70;0.40;;;9.80;99.90;;;;;;5038944;28;20732;-46
2023/01/09 05:41:30;;;;;;;1.07;0.40;;;9.80;99.90;;;;;;5033331;28;20820;-46
2023/01/09 05:43:58;;;;;;;1.53;0.63;;;9.70;99.90;;;;;;5038000;28;20438;-47
2023/01/09 05:46:27;;;;;;;0.60;0.40;;;9.70;99.90;;;;;;5045149;28;20843;-47
2023/01/09 05:48:55;;;;;;;1.70;0.40;;;9.70;99.90;;;;;;5040939;28;20463;-46
2023/01/09 05:51:25;;;;;;;0.77;0.60;;;9.70;99.90;;;;;;5034708;28;20462;-45
2023/01/09 05:53:54;;;;;;;1.73;0.50;;;9.70;99.90;;;;;;5037469;28;20494;-45
2023/01/09 05:56:22;;;;;;;2.07;0.60;;;9.70;99.90;;;;;;5034872;28;20474;-46
2023/01/09 05:58:51;;;;;;;1.17;0.40;;;9.70;99.90;;;;;;5040776;28;20474;-48
2023/01/09 06:01:19;;;;;;;1.53;0.60;;;9.70;99.90;;;;;;5031580;28;21000;-47
2023/01/09 06:03:50;;;;;;;2.20;0.70;;;9.70;99.90;;;;;;5035289;28;20470;-47
2023/01/09 06:06:19;;;;;;;0.70;0.40;;;9.70;99.90;;;;;;5050097;28;20454;-48
2023/01/09 06:08:49;;;;;;;1.80;0.60;;;9.70;99.90;;;;;;5044197;28;20447;-47
2023/01/09 06:11:17;;;;;;;0.77;0.50;;;9.70;99.90;;;;;;5066639;28;20466;-48
2023/01/09 06:13:46;;;;;;;0.70;0.60;;;9.70;99.90;;;;;;5057770;28;20432;-47
2023/01/09 06:16:14;;;;;;;1.53;0.50;;;9.70;99.90;;;;;;5062165;28;20482;-55
2023/01/09 06:18:43;;;;;;;0.93;0.60;;;9.70;99.90;;;;;;5059468;28;20460;-48
2023/01/09 06:21:12;;;;;;;1.47;0.47;;;9.70;99.90;;;;;;5048947;28;20477;-47
2023/01/09 06:23:40;;;;;;;1.40;0.40;;;9.70;99.90;;;;;;5056171;28;20475;-46
2023/01/09 06:26:10;;;;;;;0.77;0.43;;;9.70;99.90;;;;;;5047922;28;20551;-47
2023/01/09 06:28:38;;;;;;;1.63;0.70;;;9.70;99.90;;;;;;5064871;28;20459;-50
2023/01/09 06:31:07;;;;;;;0.90;0.50;;;9.70;99.90;;;;;;5057773;28;20477;-46
2023/01/09 06:33:35;;;;;;;1.87;0.73;;;9.70;99.90;;;;;;5052537;28;20497;-48
2023/01/09 06:36:05;;;;;;;1.03;0.77;;;9.70;99.90;;;;;;5051692;28;21086;-48
2023/01/09 06:38:33;;;;;;;0.80;0.43;;;9.70;99.90;;;;;;5029157;28;20493;-44
2023/01/09 06:41:02;;;;;;;1.33;0.70;;;9.70;99.90;;;;;;5017417;28;20484;-47
2023/01/09 06:43:32;;;;;;;1.60;0.50;;;9.70;99.90;;;;;;5029772;28;20962;-47
2023/01/09 06:46:00;;;;;;;3.70;0.83;;;9.70;99.90;;;;;;5011758;28;20470;-46
2023/01/09 06:48:29;;;;;;;0.70;0.40;;;9.70;99.90;;;;;;5037927;28;20472;-46
2023/01/09 06:50:58;;;;;;;1.47;0.53;;;9.70;99.90;;;;;;5038973;28;20460;-47
2023/01/09 06:53:26;;;;;;;1.50;0.60;;;9.70;99.90;;;;;;5046067;28;20447;-47
2023/01/09 06:55:55;;;;;;;2.17;0.60;;;9.60;99.90;;;;;;5027982;28;20475;-48
2023/01/09 06:58:24;;;;;;;0.50;0.40;;;9.70;99.90;;;;;;5028869;28;20444;-47
2023/01/09 07:00:54;;;;;;;1.50;1.00;;;9.70;99.90;;;;;;5010301;28;20481;-47
2023/01/09 07:03:23;;;;;;;2.30;0.47;;;9.60;99.90;;;;;;5026817;28;20793;-47
2023/01/09 07:05:51;;;;;;;1.80;0.40;;;9.60;99.90;;;;;;5034381;28;20533;-46
2023/01/09 07:08:20;;;;;;;1.80;0.50;;;9.60;99.90;;;;;;5057558;28;20775;-45
2023/01/09 07:10:48;;;;;;;0.70;0.60;;;9.60;99.90;;;;;;5034012;28;20877;-46
2023/01/09 07:13:17;;;;;;;1.93;0.60;;;9.60;99.90;;;;;;5053102;28;20440;-46
2023/01/09 07:15:45;;;;;;;2.80;0.73;;;9.60;99.90;;;;;;5031193;28;20881;-47
2023/01/09 07:18:15;;;;;;;2.40;1.20;;;9.60;99.90;;;;;;5029357;28;20479;-46
2023/01/09 07:20:44;;;;;;;0.60;0.53;;;9.60;99.90;;;;;;5036729;28;20483;-46
2023/01/09 07:23:12;;;;;;;1.53;0.50;;;9.60;99.90;;;;;;5026634;28;20505;-47
2023/01/09 07:25:42;;;;;;;0.70;0.50;;;9.60;99.90;;;;;;5028507;28;20475;-46
2023/01/09 07:28:11;;;;;;;3.73;0.63;;;9.60;99.90;;;;;;5025313;28;20480;-46
2023/01/09 07:30:40;;;;;;;0.67;0.63;;;9.60;99.90;;;;;;5019102;28;20482;-47
2023/01/09 07:33:09;;;;;;;2.03;0.70;;;9.60;99.90;;;;;;5025844;28;20436;-46
2023/01/09 07:35:39;;;;;;;0.83;0.43;;;9.60;99.90;;;;;;5026602;28;20478;-47
2023/01/09 07:38:07;;;;;;;1.47;0.57;;;9.60;99.90;;;;;;5026584;28;20474;-47
2023/01/09 07:40:36;;;;;;;1.10;0.53;;;9.60;99.90;;;;;;5031711;28;20483;-45
2023/01/09 07:43:04;;;;;;;1.10;0.60;;;9.60;99.90;;;;;;5027541;28;20890;-44
2023/01/09 07:45:33;;;;;;;2.33;0.87;;;9.60;99.90;;;;;;5037369;28;20463;-45
2023/01/09 07:48:07;;;;;;;1.43;0.60;;;9.60;99.90;;;;;;5037007;28;20457;-47
2023/01/09 07:50:35;;;;;;;0.80;0.43;;;9.60;99.90;;;;;;5014393;28;20571;-45
2023/01/09 07:53:05;;;;;;;0.60;0.50;;;9.60;99.90;;;;;;5010267;28;20823;-45
2023/01/09 07:55:34;;;;;;;1.20;0.60;;;9.60;99.90;;;;;;5017709;28;20579;-47
2023/01/09 07:58:03;;;;;;;2.07;0.60;;;9.60;99.90;;;;;;5035418;28;20439;-47
2023/01/09 08:00:31;;;;;;;2.97;0.97;;;9.60;99.90;;;;;;5027308;28;20942;-47
2023/01/09 08:03:02;;;;;;;2.30;1.13;;;9.60;99.90;;;;;;5024199;28;20445;-46
2023/01/09 08:05:31;;;;;;;1.47;0.70;;;9.60;99.90;;;;;;5028461;28;20472;-46
2023/01/09 08:08:00;;;;;;;2.20;0.40;;;9.60;99.90;;;;;;5026237;28;21402;-48
2023/01/09 08:10:30;;;;;;;0.50;0.30;;;9.60;99.90;;;;;;5041107;28;20496;-46
2023/01/09 08:12:58;;;;;;;1.63;0.50;;;9.60;99.90;;;;;;5025120;28;20958;-46
2023/01/09 08:15:27;;;;;;;0.80;0.40;;;9.60;99.90;;;;;;5026370;28;20583;-47
2023/01/09 08:17:55;;;;;;;0.60;0.50;;;9.60;99.90;;;;;;5032060;28;20454;-45
2023/01/09 08:20:24;;;;;;;0.77;0.70;;;9.60;99.90;;;;;;5052884;28;20570;-46
2023/01/09 08:22:53;;;;;;;0.70;0.40;;;9.60;99.90;;;;;;5030908;28;20445;-46
2023/01/09 08:25:21;;;;;;;1.00;0.90;;;9.60;99.90;;;;;;5040186;28;20584;-47
2023/01/09 08:27:51;;;;;;;0.80;0.50;;;9.60;99.90;;;;;;5028656;28;20822;-46
2023/01/09 08:30:20;;;;;;;1.80;0.67;;;9.60;99.90;;;;;;5029872;28;20483;-47
2023/01/09 08:32:50;;;;;;;0.73;0.50;;;9.60;99.90;;;;;;5030512;28;20523;-46
2023/01/09 08:35:18;;;;;;;1.37;0.60;;;9.60;99.90;;;;;;5048323;28;20990;-44
2023/01/09 08:37:47;;;;;;;1.10;0.60;;;9.60;99.90;;;;;;5039711;28;20443;-46
2023/01/09 08:40:17;;;;;;;1.00;0.63;;;9.60;99.90;;;;;;5062435;28;20470;-46
2023/01/09 08:48:20;;;;;;;0.60;0.40;;;9.60;99.90;;;;;;5046370;28;20440;-47
2023/01/09 08:50:54;;;;;;;1.03;0.93;;;9.50;99.90;;;;;;5051496;28;20536;-45
2023/01/09 08:53:23;;;;;;;0.67;0.50;;;9.60;99.90;;;;;;5043420;28;20477;-45
2023/01/09 08:55:51;;;;;;;1.03;0.40;;;9.60;99.90;;;;;;5036490;28;20478;-47
2023/01/09 08:58:20;;;;;;;0.70;0.47;;;9.60;99.90;;;;;;5029287;28;20480;-48
2023/01/09 09:00:52;;;;;;;1.77;0.50;;;9.50;99.90;;;;;;5027162;28;21059;-46
2023/01/09 09:03:21;;;;;;;2.00;0.47;;;9.50;99.90;;;;;;5051179;28;20648;-45
2023/01/09 09:05:50;;;;;;;0.70;0.70;;;9.50;99.90;;;;;;5039197;28;20459;-47
2023/01/09 09:08:19;;;;;;;1.00;0.40;;;9.60;99.90;;;;;;5048480;28;20442;-46
2023/01/09 09:10:47;;;;;;;0.80;0.63;;;9.60;99.90;;;;;;5030501;28;20832;-45
2023/01/09 09:13:16;;;;;;;0.73;0.43;;;9.50;99.90;;;;;;5047783;28;20441;-47
2023/01/09 09:15:44;;;;;;;1.07;0.40;;;9.50;99.90;;;;;;5035974;28;20512;-46
2023/01/09 09:18:14;;;;;;;1.00;0.50;;;9.50;99.90;;;;;;5031259;28;20436;-46
2023/01/09 09:20:43;;;;;;;0.43;0.30;;;9.60;99.90;;;;;;5048132;28;20494;-47
2023/01/09 09:23:12;;;;;;;0.80;0.40;;;9.50;99.90;;;;;;5030406;28;20443;-47
2023/01/09 09:25:40;;;;;;;0.70;0.50;;;9.50;99.90;;;;;;5048010;28;20524;-47
2023/01/09 09:28:10;;;;;;;0.90;0.40;;;9.60;99.90;;;;;;5048524;28;20435;-45
2023/01/09 09:30:39;;;;;;;1.03;0.57;;;9.50;99.90;;;;;;5042294;28;20474;-45
2023/01/09 09:33:07;;;;;;;0.70;0.60;;;9.50;99.90;;;;;;5030514;28;20460;-45
2023/01/09 09:35:38;;;;;;;1.30;0.60;;;9.50;99.90;;;;;;5030308;28;20970;-47
2023/01/09 09:38:07;;;;;;;0.77;0.40;;;9.50;99.90;;;;;;5043102;28;20851;-45
2023/01/09 09:41:07;;;;;;;1.70;0.40;;;9.50;99.90;;;;;;5048373;28;20528;-46
2023/01/09 09:46:57;;;;;;;1.27;0.57;;;9.50;99.90;;;;;;5045627;28;20525;-46
2023/01/09 09:49:33;;;;;;;0.67;0.40;;;9.50;99.90;;;;;;5030210;28;20450;-46
2023/01/09 09:52:13;;;;;;;0.60;0.40;;;9.50;99.90;;;;;;5033885;28;20436;-47
2023/01/09 09:54:47;;;;;;;0.90;0.40;;;9.50;99.90;;;;;;5039067;28;20526;-45
2023/01/09 09:57:21;;;;;;;1.00;0.60;;;9.50;99.90;;;;;;5042915;28;20483;-45
2023/01/09 09:59:51;;;;;;;3.20;0.53;;;9.50;99.90;;;;;;5025497;28;20467;-48
2023/01/09 10:02:27;;;;;;;0.50;0.40;;;9.50;99.90;;;;;;5024416;28;20481;-46
2023/01/09 10:05:03;;;;;;;0.60;0.40;;;9.50;99.90;;;;;;5023529;28;20561;-45
2023/01/09 10:07:40;;;;;;;1.07;0.40;;;9.50;99.90;;;;;;5043870;28;20825;-47
2023/01/09 10:10:15;;;;;;;1.97;0.70;;;9.50;99.90;;;;;;5033267;28;20472;-45
2023/01/09 10:12:51;;;;;;;1.63;0.50;;;9.50;99.90;;;;;;5044944;28;20435;-46
2023/01/09 10:15:30;;;;;;;0.77;0.67;;;9.50;99.90;;;;;;5025951;28;20525;-47
2023/01/09 10:18:13;;;;;;;0.87;0.30;;;9.50;99.90;;;;;;5041232;28;20451;-46
2023/01/09 10:20:54;;;;;;;0.87;0.43;;;9.50;99.90;;;;;;5054457;28;20477;-46
2023/01/09 10:23:59;;;;;;;0.80;0.53;;;9.60;99.90;;;;;;5027695;28;21018;-46
2023/01/09 10:26:32;;;;;;;2.00;0.50;;;9.50;99.90;;;;;;5029137;28;20479;-45
2023/01/09 10:29:15;;;;;;;0.63;0.47;;;9.50;99.90;;;;;;5025197;28;20496;-46
2023/01/09 10:31:55;;;;;;;0.50;0.43;;;9.50;99.90;;;;;;5020806;28;20472;-46
2023/01/09 10:34:35;;;;;;;0.87;0.40;;;9.50;99.90;;;;;;5044640;28;20542;-47
2023/01/09 10:37:10;;;;;;;0.80;0.50;;;9.50;99.90;;;;;;5027747;28;20448;-47
2023/01/09 10:39:46;;;;;;;0.70;0.40;;;9.50;99.90;;;;;;5037085;28;20563;-46
2023/01/09 10:42:22;;;;;;;0.80;0.47;;;9.50;99.90;;;;;;5028394;28;20479;-46
2023/01/09 10:44:56;;;;;;;0.63;0.37;;;9.50;99.90;;;;;;5037822;28;20468;-45
2023/01/09 10:47:30;;;;;;;0.60;0.33;;;9.50;99.90;;;;;;5037457;28;20433;-46
2023/01/09 10:50:01;;;;;;;2.53;0.73;;;9.50;99.90;;;;;;5028552;28;20475;-46
2023/01/09 10:52:35;;;;;;;2.03;0.80;;;9.50;99.90;;;;;;5027359;28;20979;-47
2023/01/09 10:55:18;;;;;;;3.23;0.60;;;9.50;99.90;;;;;;5027912;28;20468;-46
2023/01/09 10:57:50;;;;;;;1.27;0.50;;;9.50;99.90;;;;;;5023345;28;20453;-46
2023/01/09 11:00:21;;;;;;;1.00;0.50;;;9.50;99.90;;;;;;5023954;28;20473;-46
2023/01/09 11:02:51;;;;;;;0.63;0.40;;;9.50;99.90;;;;;;5030021;28;20447;-44
2023/01/09 11:05:21;;;;;;;0.50;0.30;;;9.50;99.90;;;;;;5029128;28;20858;-46
2023/01/09 11:07:55;;;;;;;1.07;0.60;;;9.50;99.90;;;;;;5025871;28;20466;-47
2023/01/09 11:10:45;;;;;;;0.60;0.50;;;9.50;99.90;;;;;;5023449;28;20501;-46
2023/01/09 11:13:18;;;;;;;0.60;0.50;;;9.50;99.90;;;;;;5025743;28;20428;-46
2023/01/09 11:15:58;;;;;;;0.70;0.40;;;9.50;99.90;;;;;;5030163;28;20476;-46
2023/01/09 11:18:27;;;;;;;0.90;0.43;;;9.40;99.90;;;;;;5026300;28;20427;-47
2023/01/09 11:20:56;;;;;;;0.70;0.40;;;9.50;99.90;;;;;;5021198;28;20522;-45
2023/01/09 11:23:28;;;;;;;0.50;0.37;;;9.40;99.90;;;;;;5007600;28;20900;-45
2023/01/09 11:26:00;;;;;;;0.60;0.40;;;9.40;99.90;;;;;;5007296;28;20474;-46
2023/01/09 11:28:29;;;;;;;0.97;0.40;;;9.50;99.90;;;;;;5010136;28;20465;-46
2023/01/09 11:30:59;;;;;;;2.23;0.47;;;9.40;99.90;;;;;;5043727;28;20484;-45
2023/01/09 11:33:30;;;;;;;0.77;0.50;;;9.40;99.90;;;;;;5058329;28;20449;-46
2023/01/09 11:36:06;;;;;;;0.80;0.57;;;9.40;99.90;;;;;;5031716;28;20465;-46
2023/01/09 11:38:48;;;;;;;1.00;0.50;;;9.40;99.90;;;;;;5040555;28;20507;-46
2023/01/09 11:41:21;;;;;;;0.80;0.50;;;9.40;99.90;;;;;;5031926;28;20571;-45
2023/01/09 11:43:52;;;;;;;1.07;0.37;;;9.40;99.90;;;;;;5040024;28;20439;-47
2023/01/09 11:46:33;;;;;;;0.50;0.40;;;9.40;99.90;;;;;;5020157;28;20486;-45
2023/01/09 11:49:02;;;;;;;0.50;0.40;;;9.40;99.90;;;;;;5026981;28;20463;-47
2023/01/09 11:51:33;;;;;;;0.83;0.47;;;9.40;99.90;;;;;;5008582;28;20504;-47
2023/01/09 11:54:17;;;;;;;2.33;0.50;;;9.40;99.90;;;;;;5040813;28;20895;-45
2023/01/09 11:56:47;;;;;;;0.93;0.53;;;9.40;99.90;;;;;;5042342;28;20493;-45
2023/01/09 11:59:18;;;;;;;1.03;0.40;;;9.40;99.90;;;;;;5044021;28;20513;-46
2023/01/09 12:02:30;;;;;;;1.83;0.60;;;9.40;99.90;;;;;;5047665;28;20444;-46
2023/01/09 12:05:01;;;;;;;0.70;0.40;;;9.40;99.90;;;;;;5031536;28;20555;-46
2023/01/09 12:08:04;;;;;;;1.33;0.30;;;9.40;99.90;;;;;;5047658;28;20531;-46
2023/01/09 12:11:03;;;;;;;0.77;0.40;;;9.40;99.90;;;;;;5020317;28;20803;-47
2023/01/09 12:13:51;;;;;;;1.43;0.50;;;9.40;99.90;;;;;;5036253;28;20532;-46
2023/01/09 12:16:30;;;;;;;0.90;0.60;;;9.40;99.90;;;;;;5053226;28;20556;-46
2023/01/09 12:19:19;;;;;;;2.57;0.30;;;9.40;99.90;;;;;;5055071;28;20463;-48
2023/01/09 12:21:58;;;;;;;0.70;0.33;;;9.40;99.90;;;;;;5031024;28;20452;-46
2023/01/09 12:24:46;;;;;;;1.33;0.43;;;9.40;99.90;;;;;;5043010;28;20444;-45
2023/01/09 12:27:28;;;;;;;0.77;0.50;;;9.40;99.90;;;;;;5030435;28;21059;-48
2023/01/09 12:30:20;;;;;;;1.17;0.67;;;9.40;99.90;;;;;;5042799;28;20471;-46
2023/01/09 12:33:05;;;;;;;0.60;0.30;;;9.40;99.90;;;;;;5044922;28;20648;-46
2023/01/09 12:35:40;;;;;;;0.50;0.30;;;9.40;99.90;;;;;;5045150;28;20476;-46
2023/01/09 12:38:28;;;;;;;0.57;0.40;;;9.40;99.90;;;;;;5017145;28;20768;-45
2023/01/09 12:41:13;;;;;;;0.60;0.40;;;9.40;99.90;;;;;;5055292;28;20479;-46
2023/01/09 12:43:52;;;;;;;0.90;0.47;;;9.40;99.90;;;;;;5052745;28;20507;-47
2023/01/09 12:46:23;;;;;;;0.70;0.40;;;9.40;99.90;;;;;;5044032;28;20557;-46
2023/01/09 12:49:15;;;;;;;0.80;0.30;;;9.40;99.90;;;;;;5040515;28;20454;-48
2023/01/09 12:51:47;;;;;;;0.60;0.40;;;9.40;99.90;;;;;;5044780;28;20555;-46
2023/01/09 12:54:23;;;;;;;0.60;0.33;;;9.40;99.90;;;;;;5063230;28;20779;-46
2023/01/09 12:56:55;;;;;;;1.03;0.30;;;9.40;99.90;;;;;;5042569;28;20431;-47
2023/01/09 12:59:30;;;;;;;0.43;0.30;;;9.40;99.90;;;;;;5027874;28;20820;-47
2023/01/09 13:02:06;;;;;;;1.00;0.70;;;9.40;99.90;;;;;;5026213;28;20445;-46
2023/01/09 13:04:39;;;;;;;0.60;0.43;;;9.40;99.90;;;;;;5044744;28;20952;-46
2023/01/09 13:07:16;;;;;;;1.03;0.40;;;9.40;99.90;;;;;;5041240;28;20468;-47
2023/01/09 13:09:50;;;;;;;0.63;0.40;;;9.40;99.90;;;;;;5025406;28;20473;-45
2023/01/09 13:12:22;;;;;;;1.43;0.70;;;9.40;99.90;;;;;;5025677;28;20466;-46
2023/01/09 13:14:56;;;;;;;0.50;0.33;;;9.40;99.90;;;;;;5035709;28;20444;-46
2023/01/09 13:17:30;;;;;;;0.70;0.40;;;9.40;99.90;;;;;;5043027;28;20531;-47
2023/01/09 13:19:59;;;;;;;0.60;0.50;;;9.40;99.90;;;;;;5034912;28;20468;-45
2023/01/09 13:22:29;;;;;;;0.50;0.30;;;9.40;99.90;;;;;;5044469;28;20999;-46
2023/01/09 13:25:21;;;;;;;0.70;0.50;;;9.40;99.90;;;;;;5043167;28;20962;-46
2023/01/09 13:27:56;;;;;;;0.83;0.50;;;9.40;99.90;;;;;;5011894;28;20478;-46
2023/01/09 13:30:45;;;;;;;0.50;0.30;;;9.40;99.90;;;;;;5042550;28;20512;-46
2023/01/09 13:33:20;;;;;;;1.53;0.60;;;9.40;99.90;;;;;;5029092;28;20978;-47